Terminal Aerodrome Forecast
Issued by NWS

Home | Current Version | Previous Version | Text Only | Print | Product List | Glossary On
Versions: 1 2 3 4 5 6 7 8 9 10 11 12
475
FTUS45 KVEF 102323
TAFDAG
TAF
KDAG 102323Z 1100/1124 06006KT P6SM FEW250
     FM110800 27008KT P6SM FEW250
     FM112000 06007KT P6SM FEW250=

USA.gov is the U.S. government's official web portal to all federal, state and local government web resources and services.